sensor_id;sensor_type;location;lat;lon;timestamp;pressure;altitude;pressure_sealevel;temperature;humidity
61478;BME280;47345;52.334;10.392;2023-01-26T00:00:25;101749.34;;;-0.28;84.78
61478;BME280;47345;52.334;10.392;2023-01-26T00:02:56;101749.79;;;-0.30;84.85
61478;BME280;47345;52.334;10.392;2023-01-26T00:05:26;101741.16;;;-0.32;84.87
61478;BME280;47345;52.334;10.392;2023-01-26T00:07:58;101737.67;;;-0.34;84.78
61478;BME280;47345;52.334;10.392;2023-01-26T00:10:28;101736.73;;;-0.36;84.86
61478;BME280;47345;52.334;10.392;2023-01-26T00:12:58;101733.55;;;-0.36;85.08
61478;BME280;47345;52.334;10.392;2023-01-26T00:15:30;101730.56;;;-0.37;84.85
61478;BME280;47345;52.334;10.392;2023-01-26T00:18:02;101722.66;;;-0.42;84.63
61478;BME280;47345;52.334;10.392;2023-01-26T00:20:32;101717.83;;;-0.47;84.57
61478;BME280;47345;52.334;10.392;2023-01-26T00:23:03;101714.44;;;-0.47;84.88
61478;BME280;47345;52.334;10.392;2023-01-26T00:25:33;101717.23;;;-0.49;84.98
61478;BME280;47345;52.334;10.392;2023-01-26T00:28:08;101716.75;;;-0.49;84.93
61478;BME280;47345;52.334;10.392;2023-01-26T00:30:38;101717.69;;;-0.50;84.98
61478;BME280;47345;52.334;10.392;2023-01-26T00:33:08;101711.30;;;-0.51;85.08
61478;BME280;47345;52.334;10.392;2023-01-26T00:35:39;101711.14;;;-0.51;85.06
61478;BME280;47345;52.334;10.392;2023-01-26T00:38:12;101705.34;;;-0.50;85.20
61478;BME280;47345;52.334;10.392;2023-01-26T00:40:43;101705.04;;;-0.49;85.19
61478;BME280;47345;52.334;10.392;2023-01-26T00:43:14;101706.25;;;-0.48;85.13
61478;BME280;47345;52.334;10.392;2023-01-26T00:45:44;101705.51;;;-0.48;84.97
61478;BME280;47345;52.334;10.392;2023-01-26T00:48:15;101699.48;;;-0.46;84.90
61478;BME280;47345;52.334;10.392;2023-01-26T00:50:46;101698.17;;;-0.45;84.97
61478;BME280;47345;52.334;10.392;2023-01-26T00:53:16;101699.73;;;-0.42;85.21
61478;BME280;47345;52.334;10.392;2023-01-26T00:55:46;101699.16;;;-0.39;85.25
61478;BME280;47345;52.334;10.392;2023-01-26T00:58:17;101697.95;;;-0.35;85.40
61478;BME280;47345;52.334;10.392;2023-01-26T01:00:48;101699.52;;;-0.29;85.41
61478;BME280;47345;52.334;10.392;2023-01-26T01:03:18;101696.55;;;-0.25;85.09
61478;BME280;47345;52.334;10.392;2023-01-26T01:05:49;101692.59;;;-0.27;84.48
61478;BME280;47345;52.334;10.392;2023-01-26T01:08:19;101693.55;;;-0.31;84.61
61478;BME280;47345;52.334;10.392;2023-01-26T01:10:50;101693.69;;;-0.33;84.49
61478;BME280;47345;52.334;10.392;2023-01-26T01:13:31;101693.70;;;-0.38;84.52
61478;BME280;47345;52.334;10.392;2023-01-26T01:16:05;101693.38;;;-0.46;84.20
61478;BME280;47345;52.334;10.392;2023-01-26T01:18:36;101696.16;;;-0.52;84.55
61478;BME280;47345;52.334;10.392;2023-01-26T01:21:08;101694.17;;;-0.57;84.38
61478;BME280;47345;52.334;10.392;2023-01-26T01:23:39;101697.73;;;-0.62;84.47
61478;BME280;47345;52.334;10.392;2023-01-26T01:26:10;101695.73;;;-0.66;84.74
61478;BME280;47345;52.334;10.392;2023-01-26T01:28:42;101686.94;;;-0.68;84.82
61478;BME280;47345;52.334;10.392;2023-01-26T01:31:14;101680.61;;;-0.70;84.97
61478;BME280;47345;52.334;10.392;2023-01-26T01:33:45;101669.71;;;-0.70;84.81
61478;BME280;47345;52.334;10.392;2023-01-26T01:36:16;101669.88;;;-0.70;85.11
61478;BME280;47345;52.334;10.392;2023-01-26T01:38:47;101676.42;;;-0.72;84.91
61478;BME280;47345;52.334;10.392;2023-01-26T01:41:20;101679.11;;;-0.72;85.09
61478;BME280;47345;52.334;10.392;2023-01-26T01:46:37;101675.02;;;-0.70;85.15
61478;BME280;47345;52.334;10.392;2023-01-26T01:49:16;101667.30;;;-0.69;84.85
61478;BME280;47345;52.334;10.392;2023-01-26T01:51:51;101673.07;;;-0.70;84.90
61478;BME280;47345;52.334;10.392;2023-01-26T01:54:27;101675.91;;;-0.69;85.06
61478;BME280;47345;52.334;10.392;2023-01-26T01:57:01;101675.73;;;-0.69;84.74
61478;BME280;47345;52.334;10.392;2023-01-26T01:59:33;101671.84;;;-0.73;84.73
61478;BME280;47345;52.334;10.392;2023-01-26T02:02:04;101664.66;;;-0.72;84.67
61478;BME280;47345;52.334;10.392;2023-01-26T02:04:34;101656.55;;;-0.74;84.61
61478;BME280;47345;52.334;10.392;2023-01-26T02:07:05;101654.13;;;-0.76;84.41
61478;BME280;47345;52.334;10.392;2023-01-26T02:09:37;101652.31;;;-0.78;84.45
61478;BME280;47345;52.334;10.392;2023-01-26T02:12:29;101648.85;;;-0.80;84.49
61478;BME280;47345;52.334;10.392;2023-01-26T02:15:02;101647.59;;;-0.82;84.40
61478;BME280;47345;52.334;10.392;2023-01-26T02:17:32;101644.11;;;-0.83;84.45
61478;BME280;47345;52.334;10.392;2023-01-26T02:20:07;101648.86;;;-0.84;84.57
61478;BME280;47345;52.334;10.392;2023-01-26T02:22:46;101638.61;;;-0.86;84.68
61478;BME280;47345;52.334;10.392;2023-01-26T02:25:26;101635.75;;;-0.87;84.63
61478;BME280;47345;52.334;10.392;2023-01-26T02:28:01;101629.92;;;-0.88;84.68
61478;BME280;47345;52.334;10.392;2023-01-26T02:30:31;101629.09;;;-0.86;84.93
61478;BME280;47345;52.334;10.392;2023-01-26T02:33:02;101627.60;;;-0.83;84.61
61478;BME280;47345;52.334;10.392;2023-01-26T02:35:32;101630.41;;;-0.80;84.83
61478;BME280;47345;52.334;10.392;2023-01-26T02:38:03;101629.56;;;-0.75;84.56
61478;BME280;47345;52.334;10.392;2023-01-26T02:40:39;101622.29;;;-0.71;84.65
61478;BME280;47345;52.334;10.392;2023-01-26T02:43:12;101618.83;;;-0.70;84.49
61478;BME280;47345;52.334;10.392;2023-01-26T02:45:43;101619.02;;;-0.68;84.68
61478;BME280;47345;52.334;10.392;2023-01-26T02:48:14;101616.98;;;-0.65;84.60
61478;BME280;47345;52.334;10.392;2023-01-26T02:51:05;101616.51;;;-0.58;84.23
61478;BME280;47345;52.334;10.392;2023-01-26T02:53:36;101610.77;;;-0.53;84.19
61478;BME280;47345;52.334;10.392;2023-01-26T02:56:06;101612.39;;;-0.49;84.22
61478;BME280;47345;52.334;10.392;2023-01-26T02:58:37;101609.20;;;-0.44;84.05
61478;BME280;47345;52.334;10.392;2023-01-26T03:01:08;101608.23;;;-0.38;84.00
61478;BME280;47345;52.334;10.392;2023-01-26T03:03:39;101596.37;;;-0.33;83.66
61478;BME280;47345;52.334;10.392;2023-01-26T03:06:13;101598.61;;;-0.29;83.53
61478;BME280;47345;52.334;10.392;2023-01-26T03:08:44;101595.92;;;-0.24;83.41
61478;BME280;47345;52.334;10.392;2023-01-26T03:11:14;101594.63;;;-0.21;83.36
61478;BME280;47345;52.334;10.392;2023-01-26T03:13:45;101591.92;;;-0.19;83.22
61478;BME280;47345;52.334;10.392;2023-01-26T03:16:15;101593.27;;;-0.15;83.17
61478;BME280;47345;52.334;10.392;2023-01-26T03:18:47;101595.59;;;-0.13;83.12
61478;BME280;47345;52.334;10.392;2023-01-26T03:21:35;101587.35;;;-0.11;83.06
61478;BME280;47345;52.334;10.392;2023-01-26T03:24:22;101591.01;;;-0.09;83.11
61478;BME280;47345;52.334;10.392;2023-01-26T03:27:09;101589.38;;;-0.07;83.13
61478;BME280;47345;52.334;10.392;2023-01-26T03:29:58;101588.36;;;-0.05;83.03
61478;BME280;47345;52.334;10.392;2023-01-26T03:32:28;101583.89;;;-0.05;82.80
61478;BME280;47345;52.334;10.392;2023-01-26T03:34:59;101588.40;;;-0.06;83.10
61478;BME280;47345;52.334;10.392;2023-01-26T03:37:29;101590.53;;;-0.05;83.39
61478;BME280;47345;52.334;10.392;2023-01-26T03:40:06;101588.77;;;-0.03;83.45
61478;BME280;47345;52.334;10.392;2023-01-26T03:42:55;101591.84;;;-0.03;83.23
61478;BME280;47345;52.334;10.392;2023-01-26T03:45:41;101593.78;;;-0.06;83.05
61478;BME280;47345;52.334;10.392;2023-01-26T03:48:29;101593.91;;;-0.10;82.81
61478;BME280;47345;52.334;10.392;2023-01-26T03:51:16;101595.48;;;-0.11;82.96
61478;BME280;47345;52.334;10.392;2023-01-26T03:54:03;101592.14;;;-0.14;83.23
61478;BME280;47345;52.334;10.392;2023-01-26T03:56:52;101592.32;;;-0.14;83.48
61478;BME280;47345;52.334;10.392;2023-01-26T03:59:22;101591.04;;;-0.14;83.61
61478;BME280;47345;52.334;10.392;2023-01-26T04:02:07;101592.33;;;-0.15;83.84
61478;BME280;47345;52.334;10.392;2023-01-26T04:04:56;101588.26;;;-0.15;83.93
61478;BME280;47345;52.334;10.392;2023-01-26T04:07:44;101587.34;;;-0.15;83.89
61478;BME280;47345;52.334;10.392;2023-01-26T04:10:32;101590.01;;;-0.15;83.96
61478;BME280;47345;52.334;10.392;2023-01-26T04:13:03;101586.39;;;-0.14;83.93
61478;BME280;47345;52.334;10.392;2023-01-26T04:15:51;101590.73;;;-0.15;83.72
61478;BME280;47345;52.334;10.392;2023-01-26T04:18:39;101587.95;;;-0.16;83.61
61478;BME280;47345;52.334;10.392;2023-01-26T04:21:28;101589.16;;;-0.18;83.60
61478;BME280;47345;52.334;10.392;2023-01-26T04:24:02;101589.80;;;-0.19;83.57
61478;BME280;47345;52.334;10.392;2023-01-26T04:26:45;101590.15;;;-0.19;83.55
61478;BME280;47345;52.334;10.392;2023-01-26T04:29:16;101585.88;;;-0.20;83.56
61478;BME280;47345;52.334;10.392;2023-01-26T04:31:46;101582.27;;;-0.19;83.48
61478;BME280;47345;52.334;10.392;2023-01-26T04:34:17;101578.52;;;-0.20;83.45
61478;BME280;47345;52.334;10.392;2023-01-26T04:36:47;101574.54;;;-0.19;83.58
61478;BME280;47345;52.334;10.392;2023-01-26T04:39:18;101573.39;;;-0.18;83.65
61478;BME280;47345;52.334;10.392;2023-01-26T04:41:48;101566.51;;;-0.15;84.11
61478;BME280;47345;52.334;10.392;2023-01-26T04:44:19;101563.50;;;-0.15;84.21
61478;BME280;47345;52.334;10.392;2023-01-26T04:46:49;101566.80;;;-0.11;84.43
61478;BME280;47345;52.334;10.392;2023-01-26T04:49:20;101562.13;;;-0.11;84.53
61478;BME280;47345;52.334;10.392;2023-01-26T04:51:50;101563.45;;;-0.10;84.81
61478;BME280;47345;52.334;10.392;2023-01-26T04:54:21;101559.84;;;-0.07;85.04
61478;BME280;47345;52.334;10.392;2023-01-26T04:56:52;101551.70;;;-0.04;85.40
61478;BME280;47345;52.334;10.392;2023-01-26T04:59:22;101547.77;;;-0.02;85.55
61478;BME280;47345;52.334;10.392;2023-01-26T05:01:53;101550.16;;;-0.00;85.69
61478;BME280;47345;52.334;10.392;2023-01-26T05:04:25;101553.64;;;0.04;86.11
61478;BME280;47345;52.334;10.392;2023-01-26T05:06:55;101555.30;;;0.03;85.87
61478;BME280;47345;52.334;10.392;2023-01-26T05:09:26;101552.98;;;0.03;86.07
61478;BME280;47345;52.334;10.392;2023-01-26T05:11:57;101553.02;;;0.05;86.22
61478;BME280;47345;52.334;10.392;2023-01-26T05:14:47;101547.13;;;0.07;86.46
61478;BME280;47345;52.334;10.392;2023-01-26T05:17:18;101543.36;;;0.07;86.31
61478;BME280;47345;52.334;10.392;2023-01-26T05:19:48;101543.21;;;0.09;86.39
61478;BME280;47345;52.334;10.392;2023-01-26T05:22:18;101540.36;;;0.11;86.36
61478;BME280;47345;52.334;10.392;2023-01-26T05:24:49;101536.94;;;0.11;86.15
61478;BME280;47345;52.334;10.392;2023-01-26T05:27:19;101544.05;;;0.12;86.11
61478;BME280;47345;52.334;10.392;2023-01-26T05:29:53;101544.89;;;0.12;85.81
61478;BME280;47345;52.334;10.392;2023-01-26T05:32:28;101549.56;;;0.12;85.59
61478;BME280;47345;52.334;10.392;2023-01-26T05:34:59;101553.00;;;0.12;85.60
61478;BME280;47345;52.334;10.392;2023-01-26T05:37:30;101549.70;;;0.11;85.58
61478;BME280;47345;52.334;10.392;2023-01-26T05:40:00;101547.70;;;0.09;85.40
61478;BME280;47345;52.334;10.392;2023-01-26T05:42:32;101551.71;;;0.05;85.35
61478;BME280;47345;52.334;10.392;2023-01-26T05:45:02;101553.09;;;0.04;85.38
61478;BME280;47345;52.334;10.392;2023-01-26T05:47:33;101556.48;;;0.02;85.31
61478;BME280;47345;52.334;10.392;2023-01-26T05:50:04;101554.46;;;0.00;85.56
61478;BME280;47345;52.334;10.392;2023-01-26T05:52:35;101557.40;;;0.01;85.79
61478;BME280;47345;52.334;10.392;2023-01-26T05:55:07;101563.98;;;0.04;85.95
61478;BME280;47345;52.334;10.392;2023-01-26T05:57:37;101560.10;;;0.06;86.00
61478;BME280;47345;52.334;10.392;2023-01-26T06:00:10;101559.94;;;0.06;85.83
61478;BME280;47345;52.334;10.392;2023-01-26T06:02:42;101565.20;;;0.05;85.64
61478;BME280;47345;52.334;10.392;2023-01-26T06:05:16;101566.48;;;0.02;85.64
61478;BME280;47345;52.334;10.392;2023-01-26T06:07:46;101573.39;;;-0.01;85.69
61478;BME280;47345;52.334;10.392;2023-01-26T06:10:16;101571.24;;;-0.04;85.74
61478;BME280;47345;52.334;10.392;2023-01-26T06:12:47;101570.02;;;-0.07;85.85
61478;BME280;47345;52.334;10.392;2023-01-26T06:15:18;101572.19;;;-0.07;85.82
61478;BME280;47345;52.334;10.392;2023-01-26T06:17:48;101568.12;;;-0.10;85.64
61478;BME280;47345;52.334;10.392;2023-01-26T06:20:19;101569.48;;;-0.13;85.76
61478;BME280;47345;52.334;10.392;2023-01-26T06:22:49;101566.14;;;-0.17;85.68
61478;BME280;47345;52.334;10.392;2023-01-26T06:25:19;101573.37;;;-0.18;85.89
61478;BME280;47345;52.334;10.392;2023-01-26T06:27:50;101580.34;;;-0.20;86.00
61478;BME280;47345;52.334;10.392;2023-01-26T06:30:20;101580.48;;;-0.21;85.88
61478;BME280;47345;52.334;10.392;2023-01-26T06:32:50;101579.65;;;-0.23;86.04
61478;BME280;47345;52.334;10.392;2023-01-26T06:35:21;101580.20;;;-0.23;86.21
61478;BME280;47345;52.334;10.392;2023-01-26T06:37:52;101579.14;;;-0.23;86.08
61478;BME280;47345;52.334;10.392;2023-01-26T06:40:23;101583.13;;;-0.23;86.15
61478;BME280;47345;52.334;10.392;2023-01-26T06:42:53;101578.69;;;-0.24;86.35
61478;BME280;47345;52.334;10.392;2023-01-26T06:45:23;101574.78;;;-0.20;86.49
61478;BME280;47345;52.334;10.392;2023-01-26T06:47:54;101567.32;;;-0.16;86.72
61478;BME280;47345;52.334;10.392;2023-01-26T06:50:30;101573.64;;;-0.09;86.68
61478;BME280;47345;52.334;10.392;2023-01-26T06:53:10;101574.89;;;-0.05;86.71
61478;BME280;47345;52.334;10.392;2023-01-26T06:55:45;101576.01;;;-0.00;86.46
61478;BME280;47345;52.334;10.392;2023-01-26T06:58:16;101573.10;;;0.02;86.43
61478;BME280;47345;52.334;10.392;2023-01-26T07:00:46;101570.17;;;0.06;86.30
61478;BME280;47345;52.334;10.392;2023-01-26T07:03:17;101569.73;;;0.09;86.34
61478;BME280;47345;52.334;10.392;2023-01-26T07:05:47;101574.05;;;0.14;86.43
61478;BME280;47345;52.334;10.392;2023-01-26T07:08:18;101576.21;;;0.18;86.38
61478;BME280;47345;52.334;10.392;2023-01-26T07:10:49;101574.48;;;0.22;86.31
61478;BME280;47345;52.334;10.392;2023-01-26T07:13:20;101577.89;;;0.24;86.15
61478;BME280;47345;52.334;10.392;2023-01-26T07:15:51;101585.91;;;0.29;86.22
61478;BME280;47345;52.334;10.392;2023-01-26T07:18:21;101587.55;;;0.32;86.10
61478;BME280;47345;52.334;10.392;2023-01-26T07:20:52;101581.20;;;0.35;86.15
61478;BME280;47345;52.334;10.392;2023-01-26T07:23:22;101579.41;;;0.37;86.10
61478;BME280;47345;52.334;10.392;2023-01-26T07:25:52;101573.02;;;0.39;86.05
61478;BME280;47345;52.334;10.392;2023-01-26T07:28:23;101574.65;;;0.41;86.06
61478;BME280;47345;52.334;10.392;2023-01-26T07:30:57;101576.16;;;0.40;85.97
61478;BME280;47345;52.334;10.392;2023-01-26T07:33:28;101579.63;;;0.42;86.07
61478;BME280;47345;52.334;10.392;2023-01-26T07:35:59;101584.32;;;0.43;86.09
61478;BME280;47345;52.334;10.392;2023-01-26T07:38:30;101584.48;;;0.44;86.00
61478;BME280;47345;52.334;10.392;2023-01-26T07:41:05;101588.27;;;0.46;86.30
61478;BME280;47345;52.334;10.392;2023-01-26T07:43:37;101588.72;;;0.47;86.21
61478;BME280;47345;52.334;10.392;2023-01-26T07:46:07;101592.63;;;0.47;86.26
61478;BME280;47345;52.334;10.392;2023-01-26T07:48:39;101593.70;;;0.50;86.28
61478;BME280;47345;52.334;10.392;2023-01-26T07:51:09;101599.80;;;0.52;86.49
61478;BME280;47345;52.334;10.392;2023-01-26T07:53:40;101608.70;;;0.55;86.51
61478;BME280;47345;52.334;10.392;2023-01-26T07:56:12;101607.61;;;0.58;86.67
61478;BME280;47345;52.334;10.392;2023-01-26T07:58:44;101601.44;;;0.56;86.72
61478;BME280;47345;52.334;10.392;2023-01-26T08:01:18;101597.07;;;0.59;86.96
61478;BME280;47345;52.334;10.392;2023-01-26T08:03:51;101599.25;;;0.62;87.04
61478;BME280;47345;52.334;10.392;2023-01-26T08:06:22;101598.38;;;0.64;87.22
61478;BME280;47345;52.334;10.392;2023-01-26T08:08:53;101588.81;;;0.64;87.21
61478;BME280;47345;52.334;10.392;2023-01-26T08:11:23;101586.83;;;0.66;87.37
61478;BME280;47345;52.334;10.392;2023-01-26T08:13:55;101587.88;;;0.67;87.30
61478;BME280;47345;52.334;10.392;2023-01-26T08:16:25;101588.30;;;0.68;87.58
61478;BME280;47345;52.334;10.392;2023-01-26T08:18:56;101592.53;;;0.69;87.49
61478;BME280;47345;52.334;10.392;2023-01-26T08:21:26;101591.48;;;0.71;87.69
61478;BME280;47345;52.334;10.392;2023-01-26T08:23:57;101593.20;;;0.72;87.72
61478;BME280;47345;52.334;10.392;2023-01-26T08:26:31;101598.02;;;0.75;87.91
61478;BME280;47345;52.334;10.392;2023-01-26T08:29:01;101594.89;;;0.76;87.96
61478;BME280;47345;52.334;10.392;2023-01-26T08:31:31;101592.17;;;0.76;87.78
61478;BME280;47345;52.334;10.392;2023-01-26T08:34:02;101589.02;;;0.75;87.71
61478;BME280;47345;52.334;10.392;2023-01-26T08:36:33;101589.96;;;0.75;87.82
61478;BME280;47345;52.334;10.392;2023-01-26T08:39:03;101593.34;;;0.75;87.83
61478;BME280;47345;52.334;10.392;2023-01-26T08:41:34;101597.58;;;0.76;87.79
61478;BME280;47345;52.334;10.392;2023-01-26T08:44:04;101597.77;;;0.78;87.97
61478;BME280;47345;52.334;10.392;2023-01-26T08:46:35;101594.57;;;0.80;87.87
61478;BME280;47345;52.334;10.392;2023-01-26T08:49:05;101587.42;;;0.82;88.10
61478;BME280;47345;52.334;10.392;2023-01-26T08:51:35;101585.39;;;0.82;87.80
61478;BME280;47345;52.334;10.392;2023-01-26T08:54:07;101594.08;;;0.86;87.67
61478;BME280;47345;52.334;10.392;2023-01-26T08:56:37;101595.77;;;0.87;87.97
61478;BME280;47345;52.334;10.392;2023-01-26T08:59:08;101598.98;;;0.90;87.84
61478;BME280;47345;52.334;10.392;2023-01-26T09:01:38;101600.09;;;0.92;88.17
61478;BME280;47345;52.334;10.392;2023-01-26T09:04:09;101604.08;;;0.94;88.04
61478;BME280;47345;52.334;10.392;2023-01-26T09:06:39;101601.11;;;0.95;88.17
61478;BME280;47345;52.334;10.392;2023-01-26T09:09:09;101602.23;;;0.97;88.11
61478;BME280;47345;52.334;10.392;2023-01-26T09:11:41;101604.48;;;0.98;88.06
61478;BME280;47345;52.334;10.392;2023-01-26T09:14:11;101604.05;;;0.99;88.00
61478;BME280;47345;52.334;10.392;2023-01-26T09:16:42;101598.05;;;1.00;88.08
61478;BME280;47345;52.334;10.392;2023-01-26T09:19:12;101594.14;;;1.01;88.18
61478;BME280;47345;52.334;10.392;2023-01-26T09:21:43;101595.33;;;1.02;88.02
61478;BME280;47345;52.334;10.392;2023-01-26T09:24:13;101590.38;;;1.03;88.37
61478;BME280;47345;52.334;10.392;2023-01-26T09:26:44;101591.73;;;1.07;88.31
61478;BME280;47345;52.334;10.392;2023-01-26T09:29:15;101590.52;;;1.08;88.49
61478;BME280;47345;52.334;10.392;2023-01-26T09:31:46;101588.06;;;1.12;88.65
61478;BME280;47345;52.334;10.392;2023-01-26T09:34:16;101586.31;;;1.14;88.45
61478;BME280;47345;52.334;10.392;2023-01-26T09:36:47;101583.29;;;1.13;88.24
61478;BME280;47345;52.334;10.392;2023-01-26T09:39:17;101587.89;;;1.14;88.15
61478;BME280;47345;52.334;10.392;2023-01-26T09:41:57;101588.03;;;1.15;88.20
61478;BME280;47345;52.334;10.392;2023-01-26T09:44:39;101589.65;;;1.14;88.21
61478;BME280;47345;52.334;10.392;2023-01-26T09:47:19;101593.91;;;1.17;88.43
61478;BME280;47345;52.334;10.392;2023-01-26T09:50:00;101592.45;;;1.20;88.45
61478;BME280;47345;52.334;10.392;2023-01-26T09:52:34;101586.29;;;1.23;88.66
61478;BME280;47345;52.334;10.392;2023-01-26T09:55:13;101587.40;;;1.27;88.63
61478;BME280;47345;52.334;10.392;2023-01-26T09:57:50;101588.92;;;1.30;88.84
61478;BME280;47345;52.334;10.392;2023-01-26T10:00:25;101589.95;;;1.33;88.64
61478;BME280;47345;52.334;10.392;2023-01-26T10:03:04;101590.93;;;1.37;88.92
61478;BME280;47345;52.334;10.392;2023-01-26T10:05:43;101581.55;;;1.39;88.84
61478;BME280;47345;52.334;10.392;2023-01-26T10:08:15;101587.00;;;1.41;88.31
61478;BME280;47345;52.334;10.392;2023-01-26T10:10:51;101583.19;;;1.41;88.12
61478;BME280;47345;52.334;10.392;2023-01-26T10:13:23;101585.56;;;1.39;87.69
61478;BME280;47345;52.334;10.392;2023-01-26T10:15:57;101588.27;;;1.36;87.51
61478;BME280;47345;52.334;10.392;2023-01-26T10:18:32;101582.66;;;1.35;87.40
61478;BME280;47345;52.334;10.392;2023-01-26T10:21:06;101575.70;;;1.36;87.54
61478;BME280;47345;52.334;10.392;2023-01-26T10:23:36;101574.32;;;1.38;87.61
61478;BME280;47345;52.334;10.392;2023-01-26T10:26:15;101580.67;;;1.41;87.59
61478;BME280;47345;52.334;10.392;2023-01-26T10:28:47;101575.41;;;1.42;87.72
61478;BME280;47345;52.334;10.392;2023-01-26T10:31:20;101575.84;;;1.45;87.63
61478;BME280;47345;52.334;10.392;2023-01-26T10:33:53;101571.80;;;1.46;87.43
61478;BME280;47345;52.334;10.392;2023-01-26T10:36:26;101568.67;;;1.47;87.43
61478;BME280;47345;52.334;10.392;2023-01-26T10:39:04;101567.59;;;1.50;87.68
61478;BME280;47345;52.334;10.392;2023-01-26T10:41:35;101562.95;;;1.51;87.48
61478;BME280;47345;52.334;10.392;2023-01-26T10:44:29;101567.14;;;1.55;87.33
61478;BME280;47345;52.334;10.392;2023-01-26T10:47:09;101562.91;;;1.58;87.28
61478;BME280;47345;52.334;10.392;2023-01-26T10:49:43;101558.55;;;1.61;87.07
61478;BME280;47345;52.334;10.392;2023-01-26T10:52:17;101558.34;;;1.63;87.14
61478;BME280;47345;52.334;10.392;2023-01-26T10:54:52;101555.78;;;1.66;87.31
61478;BME280;47345;52.334;10.392;2023-01-26T10:57:40;101553.69;;;1.67;86.69
61478;BME280;47345;52.334;10.392;2023-01-26T11:00:24;101546.98;;;1.69;86.84
61478;BME280;47345;52.334;10.392;2023-01-26T11:03:02;101539.11;;;1.72;86.75
61478;BME280;47345;52.334;10.392;2023-01-26T11:05:34;101535.80;;;1.75;87.23
61478;BME280;47345;52.334;10.392;2023-01-26T11:08:33;101532.02;;;1.77;86.93
61478;BME280;47345;52.334;10.392;2023-01-26T11:11:05;101530.13;;;1.79;86.88
61478;BME280;47345;52.334;10.392;2023-01-26T11:13:38;101528.92;;;1.80;87.18
61478;BME280;47345;52.334;10.392;2023-01-26T11:16:16;101524.96;;;1.82;86.87
61478;BME280;47345;52.334;10.392;2023-01-26T11:18:54;101524.59;;;1.85;87.07
61478;BME280;47345;52.334;10.392;2023-01-26T11:21:29;101520.67;;;1.86;86.92
61478;BME280;47345;52.334;10.392;2023-01-26T11:24:05;101517.38;;;1.85;86.64
61478;BME280;47345;52.334;10.392;2023-01-26T11:30:02;101517.63;;;1.71;85.87
61478;BME280;47345;52.334;10.392;2023-01-26T11:32:41;101517.89;;;1.61;86.42
61478;BME280;47345;52.334;10.392;2023-01-26T11:35:26;101513.66;;;1.58;86.39
61478;BME280;47345;52.334;10.392;2023-01-26T11:38:04;101505.07;;;1.54;86.43
61478;BME280;47345;52.334;10.392;2023-01-26T11:40:43;101503.92;;;1.48;86.36
61478;BME280;47345;52.334;10.392;2023-01-26T11:46:44;101506.64;;;1.37;86.67
61478;BME280;47345;52.334;10.392;2023-01-26T11:49:28;101507.20;;;1.32;86.62
61478;BME280;47345;52.334;10.392;2023-01-26T11:52:10;101508.64;;;1.28;86.61
61478;BME280;47345;52.334;10.392;2023-01-26T11:54:59;101502.00;;;1.25;86.66
61478;BME280;47345;52.334;10.392;2023-01-26T11:57:38;101498.85;;;1.24;86.69
61478;BME280;47345;52.334;10.392;2023-01-26T12:00:17;101490.85;;;1.25;86.99
61478;BME280;47345;52.334;10.392;2023-01-26T12:03:01;101489.91;;;1.28;87.03
61478;BME280;47345;52.334;10.392;2023-01-26T12:05:39;101483.53;;;1.31;86.97
61478;BME280;47345;52.334;10.392;2023-01-26T12:08:11;101480.88;;;1.33;86.77
61478;BME280;47345;52.334;10.392;2023-01-26T12:10:48;101473.23;;;1.32;86.98
61478;BME280;47345;52.334;10.392;2023-01-26T12:13:33;101473.54;;;1.33;86.75
61478;BME280;47345;52.334;10.392;2023-01-26T12:16:12;101473.55;;;1.32;86.85
61478;BME280;47345;52.334;10.392;2023-01-26T12:18:46;101462.69;;;1.31;86.74
61478;BME280;47345;52.334;10.392;2023-01-26T12:21:40;101459.13;;;1.33;86.74
61478;BME280;47345;52.334;10.392;2023-01-26T12:24:18;101458.55;;;1.33;86.94
61478;BME280;47345;52.334;10.392;2023-01-26T12:27:15;101455.95;;;1.35;86.88
61478;BME280;47345;52.334;10.392;2023-01-26T12:29:50;101460.45;;;1.37;86.85
61478;BME280;47345;52.334;10.392;2023-01-26T12:32:22;101455.82;;;1.38;86.81
61478;BME280;47345;52.334;10.392;2023-01-26T12:34:53;101450.75;;;1.41;86.93
61478;BME280;47345;52.334;10.392;2023-01-26T12:37:42;101448.17;;;1.42;86.64
61478;BME280;47345;52.334;10.392;2023-01-26T12:40:24;101442.63;;;1.43;86.61
61478;BME280;47345;52.334;10.392;2023-01-26T12:43:10;101442.02;;;1.44;86.51
61478;BME280;47345;52.334;10.392;2023-01-26T12:45:44;101434.86;;;1.46;86.63
61478;BME280;47345;52.334;10.392;2023-01-26T12:48:19;101426.80;;;1.48;86.63
61478;BME280;47345;52.334;10.392;2023-01-26T12:50:55;101424.55;;;1.51;86.73
61478;BME280;47345;52.334;10.392;2023-01-26T12:53:29;101428.04;;;1.55;86.47
61478;BME280;47345;52.334;10.392;2023-01-26T12:56:08;101431.90;;;1.58;86.62
61478;BME280;47345;52.334;10.392;2023-01-26T12:58:42;101431.73;;;1.59;86.45
61478;BME280;47345;52.334;10.392;2023-01-26T13:01:15;101435.53;;;1.59;86.14
61478;BME280;47345;52.334;10.392;2023-01-26T13:03:52;101430.70;;;1.57;86.12
61478;BME280;47345;52.334;10.392;2023-01-26T13:06:25;101430.36;;;1.55;86.08
61478;BME280;47345;52.334;10.392;2023-01-26T13:09:17;101438.66;;;1.52;86.39
61478;BME280;47345;52.334;10.392;2023-01-26T13:11:50;101435.30;;;1.47;86.56
61478;BME280;47345;52.334;10.392;2023-01-26T13:14:36;101436.95;;;1.44;86.43
61478;BME280;47345;52.334;10.392;2023-01-26T13:20:22;101433.38;;;1.40;86.95
61478;BME280;47345;52.334;10.392;2023-01-26T13:22:54;101433.89;;;1.38;87.21
61478;BME280;47345;52.334;10.392;2023-01-26T13:25:30;101429.81;;;1.38;87.20
61478;BME280;47345;52.334;10.392;2023-01-26T13:28:03;101427.45;;;1.38;87.63
61478;BME280;47345;52.334;10.392;2023-01-26T13:30:44;101421.62;;;1.39;87.83
61478;BME280;47345;52.334;10.392;2023-01-26T13:33:17;101416.20;;;1.39;87.78